Time;durP1;ratioP1;P1;durP2;ratioP2;P2;SDS_P1;SDS_P2;PMS_P1;PMS_P2;Temp;Humidity;BMP_temperature;BMP_pressure;BME280_temperature;BME280_humidity;BME280_pressure;Samples;Min_cycle;Max_cycle;Signal;HPM_P1;HPM_P2
2021/03/30 00:02:00;;;;;;;19.02;13.82;;;;;;;;;;5008091;28;20671;-64
2021/03/30 00:04:26;;;;;;;21.02;13.35;;;;;;;;;;5005298;28;20030;-63
2021/03/30 00:07:02;;;;;;;22.40;14.15;;;;;;;;;;5008526;28;20594;-66
2021/03/30 00:09:28;;;;;;;22.10;13.93;;;;;;;;;;5017730;28;20079;-64
2021/03/30 00:11:54;;;;;;;21.42;14.73;;;;;;;;;;5009361;28;20583;-64
2021/03/30 00:14:20;;;;;;;21.83;15.05;;;;;;;;;;5009366;28;20017;-65
2021/03/30 00:16:46;;;;;;;23.73;14.50;;;;;;;;;;5009675;28;20041;-64
2021/03/30 00:19:12;;;;;;;23.63;14.73;;;;;;;;;;5010994;28;20485;-64
2021/03/30 00:21:38;;;;;;;22.50;14.77;;;;;;;;;;5010964;28;20550;-64
2021/03/30 00:26:49;;;;;;;21.10;14.65;;;;;;;;;;4999504;28;20497;-59
2021/03/30 00:29:15;;;;;;;22.55;14.43;;;;;;;;;;5009692;28;20030;-57
2021/03/30 00:31:41;;;;;;;21.42;15.18;;;;;;;;;;5011115;28;20026;-58
2021/03/30 00:34:07;;;;;;;22.70;14.80;;;;;;;;;;5007521;28;20487;-57
2021/03/30 00:36:33;;;;;;;21.83;14.75;;;;;;;;;;5012769;28;20022;-58
2021/03/30 00:38:59;;;;;;;20.88;14.18;;;;;;;;;;5012393;28;20151;-57
2021/03/30 00:41:25;;;;;;;25.80;14.32;;;;;;;;;;5011236;28;20125;-55
2021/03/30 00:43:51;;;;;;;22.60;14.23;;;;;;;;;;5010970;28;20514;-59
2021/03/30 00:46:18;;;;;;;21.35;14.70;;;;;;;;;;5012220;28;20022;-58
2021/03/30 00:48:51;;;;;;;24.92;13.95;;;;;;;;;;5012327;28;20065;-59
2021/03/30 00:51:18;;;;;;;20.17;13.80;;;;;;;;;;5011076;28;20033;-61
2021/03/30 00:53:44;;;;;;;22.83;14.13;;;;;;;;;;5012230;28;20402;-58
2021/03/30 00:56:10;;;;;;;21.10;14.55;;;;;;;;;;5012463;28;20021;-57
2021/03/30 00:58:36;;;;;;;22.90;15.40;;;;;;;;;;5012325;28;20109;-57
2021/03/30 01:01:03;;;;;;;22.73;15.20;;;;;;;;;;5005852;28;20369;-58
2021/03/30 01:03:29;;;;;;;20.30;14.45;;;;;;;;;;5012089;28;20061;-57
2021/03/30 01:05:55;;;;;;;24.00;15.73;;;;;;;;;;5012140;28;20061;-59
2021/03/30 01:08:26;;;;;;;25.45;15.20;;;;;;;;;;5011852;28;20467;-59
2021/03/30 01:10:59;;;;;;;22.75;15.13;;;;;;;;;;5009050;28;20030;-58
2021/03/30 01:13:31;;;;;;;22.42;14.88;;;;;;;;;;5010297;28;20026;-55
2021/03/30 01:16:09;;;;;;;22.27;15.27;;;;;;;;;;5011911;28;20022;-58
2021/03/30 01:18:41;;;;;;;26.35;14.88;;;;;;;;;;5012040;28;20072;-59
2021/03/30 01:21:16;;;;;;;26.25;15.23;;;;;;;;;;5012215;28;20055;-56
2021/03/30 01:23:45;;;;;;;23.30;14.63;;;;;;;;;;5011936;28;20030;-59
2021/03/30 01:26:17;;;;;;;22.35;15.63;;;;;;;;;;5015641;28;20510;-56
2021/03/30 01:28:46;;;;;;;23.42;15.13;;;;;;;;;;5016089;28;20076;-57
2021/03/30 01:31:12;;;;;;;23.98;16.30;;;;;;;;;;5013129;28;20036;-58
2021/03/30 01:33:39;;;;;;;21.92;16.50;;;;;;;;;;5016018;28;20082;-58
2021/03/30 01:36:05;;;;;;;23.23;15.35;;;;;;;;;;5015711;28;20076;-60
2021/03/30 01:38:32;;;;;;;24.25;15.35;;;;;;;;;;5014724;28;20394;-59
2021/03/30 01:40:58;;;;;;;23.27;14.93;;;;;;;;;;5015318;28;20360;-59
2021/03/30 01:43:25;;;;;;;24.60;15.82;;;;;;;;;;5013993;28;20030;-59
2021/03/30 01:45:52;;;;;;;28.92;16.13;;;;;;;;;;5015571;28;20062;-58
2021/03/30 01:48:19;;;;;;;24.48;16.05;;;;;;;;;;5015650;28;20053;-57
2021/03/30 01:50:46;;;;;;;32.50;15.48;;;;;;;;;;5015635;28;20079;-58
2021/03/30 01:53:15;;;;;;;24.02;15.60;;;;;;;;;;5015371;28;20037;-59
2021/03/30 01:55:41;;;;;;;24.92;14.68;;;;;;;;;;5014103;28;20048;-59
2021/03/30 01:58:08;;;;;;;23.08;14.45;;;;;;;;;;5014006;28;20037;-59
2021/03/30 02:00:35;;;;;;;21.73;14.70;;;;;;;;;;5013880;28;20112;-58
2021/03/30 02:03:01;;;;;;;23.40;16.27;;;;;;;;;;5013523;28;20443;-59
2021/03/30 02:05:28;;;;;;;23.67;15.07;;;;;;;;;;5014949;28;20025;-62
2021/03/30 02:07:55;;;;;;;22.33;14.70;;;;;;;;;;5015286;28;20060;-59
2021/03/30 02:10:35;;;;;;;24.27;14.77;;;;;;;;;;5015406;28;20395;-59
2021/03/30 02:13:03;;;;;;;23.00;15.20;;;;;;;;;;5014770;28;20453;-58
2021/03/30 02:15:29;;;;;;;23.17;14.98;;;;;;;;;;5014948;28;20022;-59
2021/03/30 02:18:05;;;;;;;25.83;15.70;;;;;;;;;;5015188;28;20029;-58
2021/03/30 02:20:38;;;;;;;26.13;15.68;;;;;;;;;;4994316;28;20027;-57
2021/03/30 02:23:07;;;;;;;24.40;15.25;;;;;;;;;;4994200;28;20040;-57
2021/03/30 02:25:33;;;;;;;25.63;15.85;;;;;;;;;;5005632;28;20491;-58
2021/03/30 02:28:03;;;;;;;24.83;15.57;;;;;;;;;;5013496;28;20040;-57
2021/03/30 02:30:30;;;;;;;26.02;15.68;;;;;;;;;;5015027;28;20495;-60
2021/03/30 02:32:57;;;;;;;26.35;15.73;;;;;;;;;;5012940;28;20105;-60
2021/03/30 02:35:24;;;;;;;25.75;14.93;;;;;;;;;;5012631;28;20030;-58
2021/03/30 02:37:51;;;;;;;24.80;15.15;;;;;;;;;;5014700;28;20479;-59
2021/03/30 02:40:19;;;;;;;27.25;15.93;;;;;;;;;;5013359;28;20058;-60
2021/03/30 02:42:46;;;;;;;23.92;15.20;;;;;;;;;;5014795;28;20034;-59
2021/03/30 02:45:14;;;;;;;30.63;15.32;;;;;;;;;;5014563;28;20050;-57
2021/03/30 02:47:41;;;;;;;25.58;14.20;;;;;;;;;;5013415;28;20022;-58
2021/03/30 02:50:07;;;;;;;24.52;13.95;;;;;;;;;;5014498;28;20494;-57
2021/03/30 02:52:33;;;;;;;23.52;14.70;;;;;;;;;;5008145;28;20018;-58
2021/03/30 02:55:01;;;;;;;24.02;14.82;;;;;;;;;;5014017;28;20026;-59
2021/03/30 02:57:27;;;;;;;23.65;15.40;;;;;;;;;;5013163;28;20030;-59
2021/03/30 02:59:54;;;;;;;26.75;16.23;;;;;;;;;;5014441;28;20426;-58
2021/03/30 03:02:20;;;;;;;24.15;14.38;;;;;;;;;;5012786;28;20026;-57
2021/03/30 03:04:48;;;;;;;25.85;16.20;;;;;;;;;;5009946;28;20030;-58
2021/03/30 03:07:15;;;;;;;22.50;14.85;;;;;;;;;;5013361;28;20030;-60
2021/03/30 03:09:41;;;;;;;24.70;15.38;;;;;;;;;;5014244;28;20510;-55
2021/03/30 03:12:08;;;;;;;26.15;15.50;;;;;;;;;;5013026;28;20022;-60
2021/03/30 03:14:35;;;;;;;24.67;15.20;;;;;;;;;;5012474;28;20022;-58
2021/03/30 03:17:01;;;;;;;24.48;14.65;;;;;;;;;;5013086;28;20419;-59
2021/03/30 03:19:27;;;;;;;27.80;14.15;;;;;;;;;;5014005;28;20053;-57
2021/03/30 03:21:54;;;;;;;28.58;15.77;;;;;;;;;;5012538;28;20048;-59
2021/03/30 03:24:20;;;;;;;25.38;16.05;;;;;;;;;;5013585;28;20026;-59
2021/03/30 03:26:46;;;;;;;25.50;15.00;;;;;;;;;;5013667;28;20413;-58
2021/03/30 03:29:17;;;;;;;25.48;15.30;;;;;;;;;;5014076;28;20430;-55
2021/03/30 03:31:43;;;;;;;28.90;14.75;;;;;;;;;;5013870;28;20052;-57
2021/03/30 03:34:10;;;;;;;31.27;15.30;;;;;;;;;;5010717;28;20026;-60
2021/03/30 03:36:43;;;;;;;26.70;15.80;;;;;;;;;;5012061;28;20052;-58
2021/03/30 03:39:10;;;;;;;26.20;14.98;;;;;;;;;;5012252;28;20029;-59
2021/03/30 03:41:36;;;;;;;26.38;14.68;;;;;;;;;;5013428;28;20022;-57
2021/03/30 03:44:02;;;;;;;24.77;14.68;;;;;;;;;;5012913;28;20506;-58
2021/03/30 03:46:28;;;;;;;27.52;14.88;;;;;;;;;;5011718;28;20549;-57
2021/03/30 03:48:54;;;;;;;26.83;16.13;;;;;;;;;;5011138;28;20119;-58
2021/03/30 03:51:21;;;;;;;28.20;15.57;;;;;;;;;;5013602;28;20046;-54
2021/03/30 03:53:48;;;;;;;25.30;15.57;;;;;;;;;;5013188;28;20025;-58
2021/03/30 03:56:17;;;;;;;25.05;15.52;;;;;;;;;;5011726;28;20054;-56
2021/03/30 03:58:45;;;;;;;27.20;15.25;;;;;;;;;;5012137;28;20153;-58
2021/03/30 04:01:13;;;;;;;25.70;16.23;;;;;;;;;;5013202;28;20365;-56
2021/03/30 04:03:47;;;;;;;26.90;17.13;;;;;;;;;;5013178;28;20105;-57
2021/03/30 04:06:16;;;;;;;28.40;16.77;;;;;;;;;;5007474;28;20037;-57
2021/03/30 04:08:43;;;;;;;30.30;16.95;;;;;;;;;;5012957;28;20033;-57
2021/03/30 04:11:10;;;;;;;27.52;16.15;;;;;;;;;;5013045;28;20460;-58
2021/03/30 04:13:37;;;;;;;29.05;16.75;;;;;;;;;;5012729;28;20065;-53
2021/03/30 04:16:04;;;;;;;27.58;16.67;;;;;;;;;;5012052;28;20029;-58
2021/03/30 04:18:31;;;;;;;25.63;16.50;;;;;;;;;;5011589;28;20037;-58
2021/03/30 04:20:57;;;;;;;28.48;17.33;;;;;;;;;;5012904;28;20040;-59
2021/03/30 04:23:25;;;;;;;25.63;16.75;;;;;;;;;;5012687;28;20026;-58
2021/03/30 04:25:51;;;;;;;27.08;15.93;;;;;;;;;;5011181;28;20057;-56
2021/03/30 04:28:17;;;;;;;24.27;15.98;;;;;;;;;;5007711;28;20026;-57
2021/03/30 04:30:43;;;;;;;29.17;18.17;;;;;;;;;;5012658;28;20079;-58
2021/03/30 04:33:09;;;;;;;26.73;16.45;;;;;;;;;;5012581;28;20467;-58
2021/03/30 04:35:35;;;;;;;28.15;16.33;;;;;;;;;;5012053;28;20030;-58
2021/03/30 04:38:01;;;;;;;27.92;16.77;;;;;;;;;;5005625;28;20088;-58
2021/03/30 04:40:27;;;;;;;31.40;16.50;;;;;;;;;;5009878;28;20475;-57
2021/03/30 04:42:53;;;;;;;26.52;17.48;;;;;;;;;;5012394;28;20034;-58
2021/03/30 04:45:19;;;;;;;28.42;16.83;;;;;;;;;;5011992;28;20018;-58
2021/03/30 04:47:45;;;;;;;30.52;16.58;;;;;;;;;;5009710;28;20029;-57
2021/03/30 04:50:12;;;;;;;31.17;16.10;;;;;;;;;;5011262;28;20020;-58
2021/03/30 04:52:38;;;;;;;29.67;16.42;;;;;;;;;;5012549;28;20029;-58
2021/03/30 04:55:07;;;;;;;29.23;16.35;;;;;;;;;;5011875;28;20045;-57
2021/03/30 04:57:33;;;;;;;34.63;17.17;;;;;;;;;;5012389;28;20388;-61
2021/03/30 04:59:59;;;;;;;27.52;16.30;;;;;;;;;;5010560;28;20029;-59
2021/03/30 05:02:25;;;;;;;28.45;16.27;;;;;;;;;;5011110;28;20187;-59
2021/03/30 05:04:51;;;;;;;27.20;16.60;;;;;;;;;;5010710;28;20034;-57
2021/03/30 05:07:17;;;;;;;29.65;17.10;;;;;;;;;;5008689;28;20022;-57
2021/03/30 05:09:43;;;;;;;25.83;16.95;;;;;;;;;;5010862;28;20030;-57
2021/03/30 05:12:09;;;;;;;28.05;16.55;;;;;;;;;;5012044;28;20032;-58
2021/03/30 05:14:35;;;;;;;28.65;16.42;;;;;;;;;;5011805;28;20399;-58
2021/03/30 05:17:01;;;;;;;33.72;17.45;;;;;;;;;;5009903;28;20026;-59
2021/03/30 05:19:27;;;;;;;27.10;16.80;;;;;;;;;;5010797;28;20033;-58
2021/03/30 05:21:53;;;;;;;27.50;15.95;;;;;;;;;;5010789;28;20026;-57
2021/03/30 05:24:19;;;;;;;27.60;16.52;;;;;;;;;;5011322;28;20395;-59
2021/03/30 05:26:45;;;;;;;27.75;16.23;;;;;;;;;;5011760;28;20037;-58
2021/03/30 05:29:11;;;;;;;23.67;15.20;;;;;;;;;;5011780;28;20476;-57
2021/03/30 05:31:37;;;;;;;29.55;17.25;;;;;;;;;;5010410;28;20026;-58
2021/03/30 05:34:04;;;;;;;26.85;15.82;;;;;;;;;;5010429;28;20228;-58
2021/03/30 05:36:30;;;;;;;25.73;16.10;;;;;;;;;;5010413;28;20045;-57
2021/03/30 05:38:56;;;;;;;27.52;15.15;;;;;;;;;;5011566;28;20022;-60
2021/03/30 05:41:23;;;;;;;27.88;16.27;;;;;;;;;;5010733;28;20491;-60
2021/03/30 05:43:49;;;;;;;30.83;15.60;;;;;;;;;;5011281;28;20493;-56
2021/03/30 05:46:15;;;;;;;26.95;16.02;;;;;;;;;;5011675;28;20539;-57
2021/03/30 05:48:44;;;;;;;27.23;17.02;;;;;;;;;;5011864;28;20026;-60
2021/03/30 05:51:12;;;;;;;28.08;17.25;;;;;;;;;;5010755;28;20029;-55
2021/03/30 05:53:39;;;;;;;29.73;17.03;;;;;;;;;;5010020;28;20041;-58
2021/03/30 05:56:06;;;;;;;27.40;16.60;;;;;;;;;;5011775;28;20658;-56
2021/03/30 05:58:33;;;;;;;26.52;17.27;;;;;;;;;;5011577;28;20502;-57
2021/03/30 06:01:12;;;;;;;29.77;17.42;;;;;;;;;;5010405;28;20049;-59
2021/03/30 06:03:39;;;;;;;29.50;17.10;;;;;;;;;;5009965;28;20116;-58
2021/03/30 06:06:05;;;;;;;26.33;17.05;;;;;;;;;;5011055;28;20051;-56
2021/03/30 06:08:31;;;;;;;28.10;17.05;;;;;;;;;;5010106;28;20026;-59
2021/03/30 06:10:59;;;;;;;26.92;17.10;;;;;;;;;;5013233;28;20026;-56
2021/03/30 06:13:44;;;;;;;28.02;17.55;;;;;;;;;;5015159;28;20072;-59
2021/03/30 06:16:26;;;;;;;26.90;16.38;;;;;;;;;;5013449;28;20033;-58
2021/03/30 06:19:09;;;;;;;29.13;17.35;;;;;;;;;;5015421;28;20053;-60
2021/03/30 06:21:37;;;;;;;31.48;17.08;;;;;;;;;;5015121;28;20107;-58
2021/03/30 06:24:23;;;;;;;30.23;18.58;;;;;;;;;;5015073;28;20026;-55
2021/03/30 06:26:57;;;;;;;27.67;17.55;;;;;;;;;;5035926;23;20092;-62
2021/03/30 06:29:24;;;;;;;26.60;17.08;;;;;;;;;;4988242;28;20041;-63
2021/03/30 06:31:51;;;;;;;31.50;17.98;;;;;;;;;;5012943;28;20022;-64
2021/03/30 06:34:25;;;;;;;32.63;17.98;;;;;;;;;;5014087;28;20030;-64
2021/03/30 06:36:51;;;;;;;33.88;18.88;;;;;;;;;;5013876;28;20018;-63
2021/03/30 06:39:17;;;;;;;30.63;18.08;;;;;;;;;;5012489;28;20491;-64
2021/03/30 06:41:46;;;;;;;29.13;18.48;;;;;;;;;;5012752;28;20037;-63
2021/03/30 06:44:29;;;;;;;30.98;19.15;;;;;;;;;;5013267;28;20030;-63
2021/03/30 06:47:18;;;;;;;30.65;17.92;;;;;;;;;;5013616;28;20018;-63
2021/03/30 06:50:01;;;;;;;34.78;19.00;;;12.50;64.70;;;;;;5013594;28;20022;-62
2021/03/30 06:52:36;;;;;;;29.10;18.23;;;10.10;99.90;;;;;;5009774;28;20108;-62
2021/03/30 06:55:05;;;;;;;29.02;17.85;;;;;;;;;;5002173;28;20113;-62
2021/03/30 06:57:34;;;;;;;32.40;19.23;;;;;;;;;;4998318;28;20113;-62
2021/03/30 07:00:00;;;;;;;32.35;17.88;;;;;;;;;;5014851;28;20030;-64
2021/03/30 07:02:29;;;;;;;28.77;17.90;;;;;;;;;;5013380;28;20517;-62
2021/03/30 07:04:55;;;;;;;28.77;18.60;;;;;;;;;;5014496;28;20033;-63
2021/03/30 07:07:24;;;;;;;30.35;18.67;;;;;;;;;;5015503;28;20030;-65
2021/03/30 07:09:52;;;;;;;30.30;19.08;;;;;;;;;;5015539;28;20030;-62
2021/03/30 07:12:21;;;;;;;29.88;17.67;;;;;;;;;;5012512;28;20141;-61
2021/03/30 07:14:47;;;;;;;27.55;18.55;;;;;;;;;;5013831;28;20018;-62
2021/03/30 07:17:16;;;;;;;34.83;19.67;;;;;;;;;;5014327;28;20033;-65
2021/03/30 07:19:42;;;;;;;31.05;19.38;;;;;;;;;;5014299;28;20022;-63
2021/03/30 07:22:10;;;;;;;34.00;19.15;;;;;;;;;;5014155;28;20041;-62
2021/03/30 07:24:56;;;;;;;37.08;19.65;;;;;;;;;;5012624;28;20395;-64
2021/03/30 07:27:25;;;;;;;29.15;18.65;;;;;;;;;;5011440;28;20025;-62
2021/03/30 07:29:51;;;;;;;31.67;19.27;;;;;;;;;;5012938;28;20053;-62
2021/03/30 07:32:17;;;;;;;35.47;19.83;;;;;;;;;;5011524;28;20030;-63
2021/03/30 07:34:52;;;;;;;33.40;20.33;;;;;;;;;;5002811;28;20492;-64
2021/03/30 07:37:21;;;;;;;30.13;18.10;;;;;;;;;;4993735;28;20026;-62
2021/03/30 07:39:53;;;;;;;30.35;19.98;;;;;;;;;;5007685;28;20042;-62
2021/03/30 07:42:19;;;;;;;33.47;19.20;;;;;;;;;;4993013;28;20113;-64
2021/03/30 07:44:49;;;;;;;35.63;21.73;;;;;;;;;;4992596;28;20133;-64
2021/03/30 07:47:16;;;;;;;34.85;20.65;;;;;;;;;;4992907;28;20191;-65
2021/03/30 07:49:45;;;;;;;29.90;20.25;;;;;;;;;;5007681;28;20034;-61
2021/03/30 07:52:22;;;;;;;30.38;20.08;;;;;;;;;;4992829;28;20015;-65
2021/03/30 07:55:07;;;;;;;35.55;21.73;;;;;;;;;;5004447;28;20407;-60
2021/03/30 07:57:52;;;;;;;34.10;21.70;;;;;;;;;;5011026;28;20060;-64
2021/03/30 08:00:33;;;;;;;33.97;21.52;;;;;;;;;;5012356;28;20026;-65
2021/03/30 08:03:08;;;;;;;37.03;22.23;;;;;;;;;;5011063;28;20463;-63
2021/03/30 08:05:34;;;;;;;33.97;22.80;;;;;;;;;;5011182;28;20032;-63
2021/03/30 08:08:00;;;;;;;34.05;22.55;;;;;;;;;;5011845;28;20033;-65
2021/03/30 08:10:30;;;;;;;40.28;23.08;;;;;;;;;;5010882;28;20026;-66
2021/03/30 08:13:14;;;;;;;36.65;22.95;;;;;;;;;;5012082;28;20495;-63
2021/03/30 08:15:44;;;;;;;35.08;21.88;;;;;;;;;;5010541;28;20064;-65
2021/03/30 08:18:11;;;;;;;33.70;23.23;;;;;;;;;;5012668;28;20029;-66
2021/03/30 08:20:55;;;;;;;33.72;22.40;;;;;;;;;;5010670;28;20395;-62
2021/03/30 08:23:22;;;;;;;38.95;24.35;;;;;;;;;;5010012;28;20033;-64
2021/03/30 08:25:49;;;;;;;34.08;23.50;;;;;;;;;;5011717;28;20041;-63
2021/03/30 08:28:51;;;;;;;34.72;23.77;;;;;;;;;;5011548;28;20413;-63
2021/03/30 08:31:21;;;;;;;36.33;23.92;;;;;;;;;;4950962;28;20051;-63
2021/03/30 08:33:49;;;;;;;37.17;24.05;;;;;;;;;;5012417;28;20040;-64
2021/03/30 08:36:21;;;;;;;34.85;23.38;;;;;;;;;;5010514;28;20018;-63
2021/03/30 08:38:48;;;;;;;38.22;24.10;;;;;;;;;;5010014;28;20038;-62
2021/03/30 08:41:33;;;;;;;38.10;23.95;;;;;;;;;;5010172;28;20030;-59
2021/03/30 08:44:11;;;;;;;34.40;22.83;;;;;;;;;;5010079;28;20022;-61
2021/03/30 08:46:38;;;;;;;36.25;24.67;;;;;;;;;;5011404;28;20399;-60
2021/03/30 08:49:22;;;;;;;36.92;23.70;;;;;;;;;;5011474;28;20049;-61
2021/03/30 08:51:48;;;;;;;35.72;24.45;;;;;;;;;;5009570;28;20104;-58
2021/03/30 08:54:15;;;;;;;33.83;24.30;;;;;;;;;;5010799;28;20030;-62
2021/03/30 08:56:44;;;;;;;35.83;24.50;;;;;;;;;;5011263;28;20021;-60
2021/03/30 08:59:11;;;;;;;36.80;24.50;;;;;;;;;;5010148;28;20545;-60
2021/03/30 09:01:37;;;;;;;34.17;22.88;;;;;;;;;;5009755;28;20471;-59
2021/03/30 09:04:03;;;;;;;34.58;24.10;;;;;;;;;;5011048;28;20022;-59
2021/03/30 09:06:35;;;;;;;35.55;24.55;;;;;;;;;;5010009;28;20395;-62
2021/03/30 09:09:01;;;;;;;36.92;24.25;;;;;;;;;;5009578;28;20034;-62
2021/03/30 09:11:28;;;;;;;37.10;24.95;;;;;;;;;;5010287;28;20149;-61
2021/03/30 09:14:15;;;;;;;36.92;24.48;;;;;;;;;;5010521;28;20080;-61
2021/03/30 09:16:43;;;;;;;40.33;26.63;;;;;;;;;;5011151;28;20440;-60
2021/03/30 09:19:30;;;;;;;35.17;24.65;;;;;;;;;;5009512;28;20026;-61
2021/03/30 09:22:03;;;;;;;34.95;25.73;;;;;;;;;;5009278;28;20026;-60
2021/03/30 09:24:44;;;;;;;39.20;24.77;;;;;;;;;;5010666;28;20459;-62
2021/03/30 09:27:11;;;;;;;35.33;25.17;;;;;;;;;;5010634;28;20038;-63
2021/03/30 09:29:37;;;;;;;41.15;25.27;;;;;;;;;;5010827;28;20073;-62
2021/03/30 09:32:05;;;;;;;34.80;25.27;;;;;;;;;;5009622;28;20109;-62
2021/03/30 09:34:31;;;;;;;35.13;24.23;;;;;;;;;;5009356;28;20026;-63
2021/03/30 09:36:58;;;;;;;34.83;25.13;;;;;;;;;;5010176;28;20024;-60
2021/03/30 09:39:25;;;;;;;43.20;26.60;;;;;;;;;;5009402;28;20056;-65
2021/03/30 09:41:52;;;;;;;34.75;25.27;;;;;;;;;;5009886;28;20045;-64
2021/03/30 09:44:18;;;;;;;33.67;23.92;;;;;;;;;;5009624;28;20037;-64
2021/03/30 09:46:50;;;;;;;32.22;24.48;;;;;;;;;;5012973;28;20049;-62
2021/03/30 09:49:18;;;;;;;36.78;26.25;;;;;;;;;;5014748;28;20025;-65
2021/03/30 09:51:44;;;;;;;33.13;24.38;;;;;;;;;;5013665;28;20053;-63
2021/03/30 09:54:19;;;;;;;33.58;24.50;;;;;;;;;;5014245;28;20026;-63
2021/03/30 09:56:46;;;;;;;32.60;23.75;;;;;;;;;;5014167;28;20029;-63
2021/03/30 09:59:16;;;;;;;37.65;24.23;;;;;;;;;;5014868;28;20022;-63
2021/03/30 10:01:42;;;;;;;32.45;23.55;;;;;;;;;;5014894;28;20183;-63
2021/03/30 10:04:10;;;;;;;30.38;22.85;;;;;;;;;;5013335;28;20495;-62
2021/03/30 10:06:37;;;;;;;29.98;22.10;;;;;;;;;;5015063;28;20025;-63
2021/03/30 10:09:07;;;;;;;29.98;21.83;;;;;;;;;;5013403;28;20079;-63
2021/03/30 10:11:33;;;;;;;28.42;21.50;;;;;;;;;;5014955;28;20022;-62
2021/03/30 10:14:19;;;;;;;32.58;24.25;;;;;;;;;;5013165;28;20116;-63
2021/03/30 10:16:45;;;;;;;28.15;20.67;;;;;;;;;;5014760;28;20033;-61
2021/03/30 10:19:15;;;;;;;29.77;20.33;;;;;;;;;;5012785;28;20113;-63
2021/03/30 10:21:42;;;;;;;30.95;20.83;;;;;;;;;;5014130;28;20021;-63
2021/03/30 10:24:17;;;;;;;28.77;21.73;;;;;;;;;;5014051;28;20029;-62
2021/03/30 10:27:00;;;;;;;29.13;21.00;;;;;;;;;;5013910;28;20034;-62
2021/03/30 10:29:33;;;;;;;31.48;21.25;;;;;;;;;;5014110;28;20136;-63
2021/03/30 10:32:06;;;;;;;26.25;20.67;;;;;;;;;;5012892;28;20022;-64
2021/03/30 10:34:34;;;;;;;31.20;22.05;;;;;;;;;;5012511;28;20373;-62
2021/03/30 10:37:01;;;;;;;35.22;22.33;;;;;;;;;;5013887;28;20037;-61
2021/03/30 10:39:28;;;;;;;29.83;20.98;;;;;;;;;;5012596;28;20542;-61
2021/03/30 10:42:00;;;;;;;32.78;23.23;;;;;;;;;;5012898;28;20053;-62
2021/03/30 10:44:32;;;;;;;32.92;23.50;;;;;;;;;;5014260;28;20022;-64
2021/03/30 10:46:58;;;;;;;26.92;20.35;;;;;;;;;;5013720;28;20088;-60
2021/03/30 10:49:24;;;;;;;27.17;20.75;;;;;;;;;;5013788;28;20022;-62
2021/03/30 10:51:50;;;;;;;27.00;19.35;;;;;;;;;;5013556;28;20026;-63
2021/03/30 10:54:20;;;;;;;29.40;20.40;;;;;;;;;;5012005;28;20022;-61
2021/03/30 10:56:46;;;;;;;28.08;21.30;;;;;;;;;;5013432;28;20021;-63
2021/03/30 10:59:14;;;;;;;28.83;22.38;;;;;;;;;;5013789;28;20030;-63
2021/03/30 11:01:40;;;;;;;30.77;19.67;;;;;;;;;;5012612;28;20026;-62
2021/03/30 11:04:06;;;;;;;26.85;20.10;;;;;;;;;;5011875;28;20029;-63
2021/03/30 11:06:33;;;;;;;26.75;20.25;;;;;;;;;;5013770;28;20048;-62
2021/03/30 11:08:59;;;;;;;25.33;19.15;;;;;;;;;;5012165;28;20399;-60
2021/03/30 11:11:25;;;;;;;30.73;21.25;;;;;;;;;;5012304;28;20474;-62
2021/03/30 11:13:51;;;;;;;28.58;20.13;;;;;;;;;;5012024;28;20065;-60
2021/03/30 11:16:17;;;;;;;28.55;19.50;;;;;;;;;;5013588;28;20526;-62
2021/03/30 11:18:45;;;;;;;24.73;18.92;;;;;;;;;;5013154;28;20399;-61
2021/03/30 11:21:11;;;;;;;25.40;20.63;;;;;;;;;;5013712;28;20058;-64
2021/03/30 11:23:38;;;;;;;24.35;18.27;;;10.10;99.90;;;;;;5011805;28;20103;-63
2021/03/30 11:26:04;;;;;;;23.60;18.70;;;24.80;45.30;;;;;;5012989;28;20041;-60
2021/03/30 11:28:36;;;;;;;23.40;18.50;;;25.00;46.50;;;;;;5012751;28;20037;-66
2021/03/30 11:31:08;;;;;;;25.48;19.15;;;25.30;43.80;;;;;;5013445;28;20069;-62
2021/03/30 11:33:42;;;;;;;24.88;18.90;;;26.00;43.50;;;;;;5011806;28;20022;-64
2021/03/30 11:36:16;;;;;;;26.83;20.55;;;26.40;43.90;;;;;;5013025;28;20029;-63
2021/03/30 11:38:42;;;;;;;27.13;20.38;;;26.50;44.50;;;;;;5011711;28;20486;-63
2021/03/30 11:41:08;;;;;;;26.20;20.60;;;26.40;44.70;;;;;;5011781;28;20037;-63
2021/03/30 11:43:33;;;;;;;27.55;20.73;;;27.30;45.10;;;;;;5011133;28;20026;-64
2021/03/30 11:45:59;;;;;;;26.20;22.27;;;27.70;43.90;;;;;;5012824;28;20499;-64
2021/03/30 11:48:25;;;;;;;25.70;20.90;;;26.80;43.90;;;;;;5012834;28;20116;-64
2021/03/30 11:50:50;;;;;;;25.10;21.58;;;27.10;44.60;;;;;;5011438;28;20022;-62
2021/03/30 11:53:16;;;;;;;26.08;21.95;;;27.20;45.10;;;;;;5011731;28;20026;-63
2021/03/30 11:55:42;;;;;;;25.38;20.77;;;28.20;43.50;;;;;;5012686;28;20037;-64
2021/03/30 11:58:08;;;;;;;27.10;21.85;;;28.00;42.50;;;;;;5012659;28;20053;-62
2021/03/30 12:00:33;;;;;;;28.48;21.85;;;27.50;43.00;;;;;;5011745;28;20120;-64
2021/03/30 12:02:59;;;;;;;27.85;22.10;;;28.00;43.50;;;;;;5012504;28;20038;-63
2021/03/30 12:05:25;;;;;;;28.92;22.75;;;27.80;42.60;;;;;;5011007;28;20026;-61
2021/03/30 12:07:53;;;;;;;29.50;23.67;;;28.90;42.40;;;;;;5011775;28;20096;-61
2021/03/30 12:10:20;;;;;;;27.90;22.27;;;29.30;42.50;;;;;;5010805;28;20054;-63
2021/03/30 12:12:46;;;;;;;28.15;22.63;;;28.70;41.00;;;;;;5012264;28;20093;-64
2021/03/30 12:15:12;;;;;;;29.55;23.05;;;28.10;41.90;;;;;;5011732;28;20149;-62
2021/03/30 12:17:39;;;;;;;29.13;22.95;;;27.80;42.40;;;;;;5012055;28;20080;-60
2021/03/30 12:20:06;;;;;;;29.98;23.10;;;27.90;41.70;;;;;;5010520;28;20025;-63
2021/03/30 12:22:32;;;;;;;29.30;22.37;;;27.50;42.90;;;;;;5010652;28;20026;-64
2021/03/30 12:24:59;;;;;;;27.77;22.45;;;27.30;42.10;;;;;;5010025;28;20305;-63
2021/03/30 12:27:25;;;;;;;28.80;21.85;;;27.90;42.10;;;;;;5011967;28;20033;-62
2021/03/30 12:29:50;;;;;;;26.45;21.15;;;27.70;41.40;;;;;;5011918;28;20022;-60
2021/03/30 12:32:16;;;;;;;28.10;21.92;;;27.10;41.40;;;;;;5009141;28;20072;-63
2021/03/30 12:34:42;;;;;;;26.73;21.00;;;26.60;42.20;;;;;;5040139;23;20123;-54
2021/03/30 12:37:10;;;;;;;27.95;20.83;;;26.70;41.30;;;;;;4994547;28;20514;-53
2021/03/30 12:39:35;;;;;;;29.38;23.10;;;27.40;41.80;;;;;;5011894;28;20193;-54
2021/03/30 12:42:01;;;;;;;27.88;23.08;;;28.40;41.60;;;;;;5011593;28;20483;-53
2021/03/30 12:44:27;;;;;;;29.48;23.05;;;28.60;42.30;;;;;;5012750;28;20434;-54
2021/03/30 12:46:53;;;;;;;29.45;24.00;;;28.90;41.10;;;;;;5011893;28;20642;-54
2021/03/30 12:49:21;;;;;;;28.45;23.20;;;29.00;41.40;;;;;;4998558;28;20093;-53
2021/03/30 12:51:49;;;;;;;27.55;23.27;;;28.30;42.20;;;;;;4991472;28;20068;-58
2021/03/30 12:54:14;;;;;;;33.10;25.17;;;27.50;41.30;;;;;;4654329;28;9999713;-55
2021/03/30 12:56:40;;;;;;;29.20;24.73;;;28.60;44.40;;;;;;5009220;28;20542;-57
2021/03/30 12:59:06;;;;;;;29.88;25.02;;;29.10;41.20;;;;;;5009283;28;20077;-54
2021/03/30 13:01:33;;;;;;;30.73;25.25;;;29.50;41.20;;;;;;5008051;28;20708;-51
2021/03/30 13:03:59;;;;;;;32.30;25.98;;;30.00;42.40;;;;;;5008641;28;20087;-52
2021/03/30 13:06:25;;;;;;;31.75;25.05;;;30.10;40.70;;;;;;5009722;28;20495;-55
2021/03/30 13:08:50;;;;;;;29.30;25.15;;;28.70;41.10;;;;;;5009586;28;20030;-53
2021/03/30 13:11:16;;;;;;;30.27;25.58;;;29.30;42.00;;;;;;5009252;28;20052;-55
2021/03/30 13:13:42;;;;;;;31.13;25.55;;;29.10;41.70;;;;;;5008700;28;20033;-53
2021/03/30 13:16:07;;;;;;;30.58;25.42;;;28.30;42.50;;;;;;5006761;28;20025;-57
2021/03/30 13:18:33;;;;;;;30.17;25.67;;;28.80;43.90;;;;;;5008174;28;20040;-53
2021/03/30 13:20:59;;;;;;;31.30;26.25;;;29.10;41.80;;;;;;5012062;28;20037;-56
2021/03/30 13:23:24;;;;;;;31.48;26.88;;;29.00;43.00;;;;;;5014259;28;20509;-57
2021/03/30 13:25:50;;;;;;;33.22;27.85;;;29.80;42.40;;;;;;5013567;28;20125;-55
2021/03/30 13:28:15;;;;;;;32.83;26.67;;;30.10;42.40;;;;;;5015256;28;20034;-54
2021/03/30 13:30:43;;;;;;;30.48;25.80;;;29.50;42.10;;;;;;5015622;28;20103;-55
2021/03/30 13:33:09;;;;;;;33.78;27.42;;;30.60;42.60;;;;;;5013505;28;20071;-57
2021/03/30 13:35:35;;;;;;;34.13;27.67;;;31.30;42.30;;;;;;5014950;28;20083;-52
2021/03/30 13:38:01;;;;;;;32.20;27.55;;;31.90;40.40;;;;;;5015469;28;20109;-56
2021/03/30 13:40:27;;;;;;;32.85;26.92;;;31.30;40.40;;;;;;5014968;28;20065;-52
2021/03/30 13:42:53;;;;;;;33.17;27.25;;;31.50;40.90;;;;;;5013939;28;20034;-55
2021/03/30 13:45:19;;;;;;;30.27;27.02;;;31.60;41.50;;;;;;5015055;28;20041;-59
2021/03/30 13:47:44;;;;;;;30.83;27.50;;;32.90;40.10;;;;;;5014921;28;20127;-59
2021/03/30 13:50:12;;;;;;;31.98;27.40;;;31.10;40.40;;;;;;5013858;28;20819;-55
2021/03/30 13:52:37;;;;;;;34.22;27.90;;;31.60;39.60;;;;;;5015167;28;20392;-56
2021/03/30 13:55:07;;;;;;;31.38;27.50;;;31.70;41.00;;;;;;5014608;28;20053;-54
2021/03/30 13:57:32;;;;;;;29.83;26.15;;;31.70;40.00;;;;;;5013895;28;20394;-53
2021/03/30 13:59:58;;;;;;;34.50;27.65;;;31.80;42.30;;;;;;5013862;28;20026;-55
2021/03/30 14:02:24;;;;;;;31.45;27.38;;;32.10;41.00;;;;;;5013416;28;20034;-54